TFM - Tactical Decision Aid (Experimental) INFO Settings
ID: Runway Winds: CIG/VIS Threshold: METAR Board: Map:

KOGB - Orangeburg Muni

Updated at: 1036 UTC 19 Oct 2017
Latest TAF at: 0959 UTC 19 Oct 2017

TAF Board

Time0953Z19/11Z19/12Z19/13Z19/14Z19/15Z19/16Z19/17Z19/18Z19/19Z19/20Z19/21Z19/22Z19/23Z
TypeOBSPRVLPRVLPRVLPRVLPRVLPRVLPRVLPRVLPRVLPRVLPRVLPRVLPRVL
VIS10>6>6>6>6>6>6>6>6>6>6>6>6>6
CIG----------------------------
CoverCLRSKCSKCSKCSKCSKCSKCSKCSKCSKCSKCSKCSKCSKC
FltCatVFRVFRVFRVFRVFRVFRVFRVFRVFRVFRVFRVFRVFRVFR
WX----------------------------
WDirVRBVRBVRBVRBVRB303030303030303030
WSpd00000666666666
WGst----------------------------
TAF
KOGB 190959Z 1910/2006 00000KT P6SM SKC
  FM191500 03006KT P6SM SKC


METAR
KOGB 190953Z AUTO 00000KT 10SM CLR 08/07 A3026 RMK AO2 SLP244 T00780067

TAF/METAR Board Legend

Potential Impact
  None Marginal Slight Moderate High
Visibility (sm) >5 3≤X≤5 2≤X<3 1≤X<2 <1
Ceiling (100 ft) >30 10≤X≤30 8≤X<10 3≤X<8 <3
Wind Speed (kt) <10 10≤X<20 20≤X<30 ≥30
Wind Gust (kt) <15 15≤X<25 25≤X<35 ≥35
Weather No Wx Reported VCTS -TS,-FZRA TS,FZRA +TS,+FZRA